sensor_id;sensor_type;location;lat;lon;timestamp;P1;durP1;ratioP1;P2;durP2;ratioP2
47167;SDS011;32931;47.778;17.806;2023-12-28T00:00:00;21.08;;;10.77;;
47167;SDS011;32931;47.778;17.806;2023-12-28T00:02:26;17.55;;;10.65;;
47167;SDS011;32931;47.778;17.806;2023-12-28T00:04:53;18.75;;;9.90;;
47167;SDS011;32931;47.778;17.806;2023-12-28T00:07:19;16.05;;;10.15;;
47167;SDS011;32931;47.778;17.806;2023-12-28T00:09:46;20.08;;;9.77;;
47167;SDS011;32931;47.778;17.806;2023-12-28T00:12:12;20.25;;;10.40;;
47167;SDS011;32931;47.778;17.806;2023-12-28T00:14:38;15.90;;;10.27;;
47167;SDS011;32931;47.778;17.806;2023-12-28T00:17:04;18.02;;;10.50;;
47167;SDS011;32931;47.778;17.806;2023-12-28T00:19:30;19.85;;;10.30;;
47167;SDS011;32931;47.778;17.806;2023-12-28T00:21:56;19.48;;;10.05;;
47167;SDS011;32931;47.778;17.806;2023-12-28T00:24:22;23.17;;;10.85;;
47167;SDS011;32931;47.778;17.806;2023-12-28T00:26:48;20.58;;;10.48;;
47167;SDS011;32931;47.778;17.806;2023-12-28T00:29:14;16.73;;;10.52;;
47167;SDS011;32931;47.778;17.806;2023-12-28T00:31:41;17.27;;;10.50;;
47167;SDS011;32931;47.778;17.806;2023-12-28T00:34:07;15.38;;;9.65;;
47167;SDS011;32931;47.778;17.806;2023-12-28T00:36:33;19.67;;;10.13;;
47167;SDS011;32931;47.778;17.806;2023-12-28T00:38:59;16.40;;;10.02;;
47167;SDS011;32931;47.778;17.806;2023-12-28T00:41:25;20.92;;;10.38;;
47167;SDS011;32931;47.778;17.806;2023-12-28T00:43:51;18.30;;;10.27;;
47167;SDS011;32931;47.778;17.806;2023-12-28T00:46:17;21.75;;;10.38;;
47167;SDS011;32931;47.778;17.806;2023-12-28T00:48:43;21.70;;;10.30;;
47167;SDS011;32931;47.778;17.806;2023-12-28T00:51:10;20.55;;;10.82;;
47167;SDS011;32931;47.778;17.806;2023-12-28T00:53:36;22.35;;;11.13;;
47167;SDS011;32931;47.778;17.806;2023-12-28T00:56:02;17.13;;;10.23;;
47167;SDS011;32931;47.778;17.806;2023-12-28T00:58:28;18.23;;;9.85;;
47167;SDS011;32931;47.778;17.806;2023-12-28T01:00:54;20.63;;;9.95;;
47167;SDS011;32931;47.778;17.806;2023-12-28T01:03:22;20.63;;;10.25;;
47167;SDS011;32931;47.778;17.806;2023-12-28T01:05:49;25.05;;;10.48;;
47167;SDS011;32931;47.778;17.806;2023-12-28T01:08:17;18.23;;;10.27;;
47167;SDS011;32931;47.778;17.806;2023-12-28T01:10:43;17.70;;;10.32;;
47167;SDS011;32931;47.778;17.806;2023-12-28T01:13:10;17.23;;;10.13;;
47167;SDS011;32931;47.778;17.806;2023-12-28T01:15:36;19.45;;;10.50;;
47167;SDS011;32931;47.778;17.806;2023-12-28T01:18:02;18.85;;;10.40;;
47167;SDS011;32931;47.778;17.806;2023-12-28T01:20:28;19.73;;;10.40;;
47167;SDS011;32931;47.778;17.806;2023-12-28T01:22:54;19.73;;;10.85;;
47167;SDS011;32931;47.778;17.806;2023-12-28T01:25:20;15.30;;;10.50;;
47167;SDS011;32931;47.778;17.806;2023-12-28T01:27:47;18.70;;;10.50;;
47167;SDS011;32931;47.778;17.806;2023-12-28T01:30:13;19.80;;;11.02;;
47167;SDS011;32931;47.778;17.806;2023-12-28T01:32:39;15.25;;;10.00;;
47167;SDS011;32931;47.778;17.806;2023-12-28T01:35:05;18.17;;;10.10;;
47167;SDS011;32931;47.778;17.806;2023-12-28T01:37:32;18.80;;;11.13;;
47167;SDS011;32931;47.778;17.806;2023-12-28T01:39:59;19.25;;;10.30;;
47167;SDS011;32931;47.778;17.806;2023-12-28T01:42:26;18.58;;;10.68;;
47167;SDS011;32931;47.778;17.806;2023-12-28T01:44:52;20.45;;;10.75;;
47167;SDS011;32931;47.778;17.806;2023-12-28T01:47:18;20.60;;;10.80;;
47167;SDS011;32931;47.778;17.806;2023-12-28T01:49:45;18.95;;;10.77;;
47167;SDS011;32931;47.778;17.806;2023-12-28T01:52:11;18.40;;;10.52;;
47167;SDS011;32931;47.778;17.806;2023-12-28T01:54:38;16.67;;;9.60;;
47167;SDS011;32931;47.778;17.806;2023-12-28T01:57:04;22.60;;;10.55;;
47167;SDS011;32931;47.778;17.806;2023-12-28T01:59:31;17.05;;;10.48;;
47167;SDS011;32931;47.778;17.806;2023-12-28T02:01:58;19.35;;;10.68;;
47167;SDS011;32931;47.778;17.806;2023-12-28T02:04:24;15.52;;;9.88;;
47167;SDS011;32931;47.778;17.806;2023-12-28T02:06:57;17.38;;;10.65;;
47167;SDS011;32931;47.778;17.806;2023-12-28T02:09:24;20.50;;;10.20;;
47167;SDS011;32931;47.778;17.806;2023-12-28T02:11:51;19.25;;;10.25;;
47167;SDS011;32931;47.778;17.806;2023-12-28T02:14:18;20.35;;;10.50;;
47167;SDS011;32931;47.778;17.806;2023-12-28T02:16:46;19.98;;;10.55;;
47167;SDS011;32931;47.778;17.806;2023-12-28T02:19:19;23.10;;;10.50;;
47167;SDS011;32931;47.778;17.806;2023-12-28T02:21:57;19.35;;;9.93;;
47167;SDS011;32931;47.778;17.806;2023-12-28T02:24:25;22.15;;;10.73;;
47167;SDS011;32931;47.778;17.806;2023-12-28T02:26:51;19.80;;;10.10;;
47167;SDS011;32931;47.778;17.806;2023-12-28T02:29:17;18.00;;;10.10;;
47167;SDS011;32931;47.778;17.806;2023-12-28T02:31:50;17.17;;;10.07;;
47167;SDS011;32931;47.778;17.806;2023-12-28T02:34:27;18.88;;;10.25;;
47167;SDS011;32931;47.778;17.806;2023-12-28T02:36:55;23.05;;;10.93;;
47167;SDS011;32931;47.778;17.806;2023-12-28T02:39:23;17.88;;;9.85;;
47167;SDS011;32931;47.778;17.806;2023-12-28T02:41:51;18.85;;;9.98;;
47167;SDS011;32931;47.778;17.806;2023-12-28T02:44:17;26.13;;;10.57;;
47167;SDS011;32931;47.778;17.806;2023-12-28T02:46:44;16.95;;;10.40;;
47167;SDS011;32931;47.778;17.806;2023-12-28T02:49:10;19.77;;;10.60;;
47167;SDS011;32931;47.778;17.806;2023-12-28T02:51:37;27.08;;;11.23;;
47167;SDS011;32931;47.778;17.806;2023-12-28T02:54:03;19.63;;;11.35;;
47167;SDS011;32931;47.778;17.806;2023-12-28T02:56:29;17.92;;;11.00;;
47167;SDS011;32931;47.778;17.806;2023-12-28T02:58:57;22.73;;;11.70;;
47167;SDS011;32931;47.778;17.806;2023-12-28T03:01:23;20.38;;;11.38;;
47167;SDS011;32931;47.778;17.806;2023-12-28T03:03:49;19.83;;;10.68;;
47167;SDS011;32931;47.778;17.806;2023-12-28T03:06:15;21.30;;;11.40;;
47167;SDS011;32931;47.778;17.806;2023-12-28T03:08:42;23.70;;;11.63;;
47167;SDS011;32931;47.778;17.806;2023-12-28T03:11:08;20.67;;;11.13;;
47167;SDS011;32931;47.778;17.806;2023-12-28T03:13:34;21.70;;;11.45;;
47167;SDS011;32931;47.778;17.806;2023-12-28T03:16:00;19.90;;;10.75;;
47167;SDS011;32931;47.778;17.806;2023-12-28T03:18:26;20.67;;;11.10;;
47167;SDS011;32931;47.778;17.806;2023-12-28T03:20:52;21.75;;;11.38;;
47167;SDS011;32931;47.778;17.806;2023-12-28T03:23:18;20.85;;;11.20;;
47167;SDS011;32931;47.778;17.806;2023-12-28T03:25:44;20.33;;;10.77;;
47167;SDS011;32931;47.778;17.806;2023-12-28T03:28:11;20.40;;;11.15;;
47167;SDS011;32931;47.778;17.806;2023-12-28T03:30:37;24.05;;;11.88;;
47167;SDS011;32931;47.778;17.806;2023-12-28T03:33:03;22.50;;;11.90;;
47167;SDS011;32931;47.778;17.806;2023-12-28T03:35:29;23.70;;;11.75;;
47167;SDS011;32931;47.778;17.806;2023-12-28T03:37:55;20.95;;;11.95;;
47167;SDS011;32931;47.778;17.806;2023-12-28T03:40:21;20.33;;;11.50;;
47167;SDS011;32931;47.778;17.806;2023-12-28T03:42:47;25.50;;;11.50;;
47167;SDS011;32931;47.778;17.806;2023-12-28T03:45:14;22.90;;;12.38;;
47167;SDS011;32931;47.778;17.806;2023-12-28T03:47:40;21.23;;;11.95;;
47167;SDS011;32931;47.778;17.806;2023-12-28T03:50:06;23.35;;;11.55;;
47167;SDS011;32931;47.778;17.806;2023-12-28T03:52:32;25.13;;;12.23;;
47167;SDS011;32931;47.778;17.806;2023-12-28T03:54:58;23.65;;;11.93;;
47167;SDS011;32931;47.778;17.806;2023-12-28T03:57:25;22.65;;;12.40;;
47167;SDS011;32931;47.778;17.806;2023-12-28T03:59:51;20.95;;;11.90;;
47167;SDS011;32931;47.778;17.806;2023-12-28T04:02:19;23.30;;;12.30;;
47167;SDS011;32931;47.778;17.806;2023-12-28T04:04:45;20.27;;;12.07;;
47167;SDS011;32931;47.778;17.806;2023-12-28T04:07:11;24.85;;;12.35;;
47167;SDS011;32931;47.778;17.806;2023-12-28T04:09:37;26.13;;;11.93;;
47167;SDS011;32931;47.778;17.806;2023-12-28T04:12:03;20.08;;;12.55;;
47167;SDS011;32931;47.778;17.806;2023-12-28T04:14:30;20.58;;;12.40;;
47167;SDS011;32931;47.778;17.806;2023-12-28T04:16:56;22.02;;;12.25;;
47167;SDS011;32931;47.778;17.806;2023-12-28T04:19:22;21.40;;;12.00;;
47167;SDS011;32931;47.778;17.806;2023-12-28T04:21:48;21.10;;;12.10;;
47167;SDS011;32931;47.778;17.806;2023-12-28T04:24:14;18.48;;;11.52;;
47167;SDS011;32931;47.778;17.806;2023-12-28T04:26:40;22.13;;;12.40;;
47167;SDS011;32931;47.778;17.806;2023-12-28T04:29:06;22.25;;;12.27;;
47167;SDS011;32931;47.778;17.806;2023-12-28T04:31:33;22.85;;;12.90;;
47167;SDS011;32931;47.778;17.806;2023-12-28T04:33:59;18.48;;;11.93;;
47167;SDS011;32931;47.778;17.806;2023-12-28T04:36:25;21.23;;;12.70;;
47167;SDS011;32931;47.778;17.806;2023-12-28T04:38:51;25.63;;;12.18;;
47167;SDS011;32931;47.778;17.806;2023-12-28T04:41:18;25.10;;;12.25;;
47167;SDS011;32931;47.778;17.806;2023-12-28T04:43:44;20.50;;;12.20;;
47167;SDS011;32931;47.778;17.806;2023-12-28T04:46:10;20.77;;;12.40;;
47167;SDS011;32931;47.778;17.806;2023-12-28T04:48:36;24.77;;;11.95;;
47167;SDS011;32931;47.778;17.806;2023-12-28T04:51:03;22.25;;;11.85;;
47167;SDS011;32931;47.778;17.806;2023-12-28T04:53:29;24.55;;;12.10;;
47167;SDS011;32931;47.778;17.806;2023-12-28T04:55:57;27.60;;;12.20;;
47167;SDS011;32931;47.778;17.806;2023-12-28T04:58:23;20.35;;;11.27;;
47167;SDS011;32931;47.778;17.806;2023-12-28T05:00:49;21.75;;;12.25;;
47167;SDS011;32931;47.778;17.806;2023-12-28T05:03:15;23.83;;;12.48;;
47167;SDS011;32931;47.778;17.806;2023-12-28T05:05:41;19.75;;;11.70;;
47167;SDS011;32931;47.778;17.806;2023-12-28T05:08:07;20.90;;;12.25;;
47167;SDS011;32931;47.778;17.806;2023-12-28T05:10:33;22.45;;;11.68;;
47167;SDS011;32931;47.778;17.806;2023-12-28T05:13:00;22.50;;;12.27;;
47167;SDS011;32931;47.778;17.806;2023-12-28T05:15:26;25.08;;;12.70;;
47167;SDS011;32931;47.778;17.806;2023-12-28T05:17:52;21.58;;;12.15;;
47167;SDS011;32931;47.778;17.806;2023-12-28T05:20:18;22.45;;;12.38;;
47167;SDS011;32931;47.778;17.806;2023-12-28T05:22:44;24.33;;;13.25;;
47167;SDS011;32931;47.778;17.806;2023-12-28T05:25:10;22.92;;;12.73;;
47167;SDS011;32931;47.778;17.806;2023-12-28T05:27:36;26.67;;;13.45;;
47167;SDS011;32931;47.778;17.806;2023-12-28T05:30:03;23.73;;;13.73;;
47167;SDS011;32931;47.778;17.806;2023-12-28T05:32:29;24.58;;;13.27;;
47167;SDS011;32931;47.778;17.806;2023-12-28T05:34:55;25.35;;;13.98;;
47167;SDS011;32931;47.778;17.806;2023-12-28T05:37:21;23.42;;;13.38;;
47167;SDS011;32931;47.778;17.806;2023-12-28T05:39:47;25.90;;;13.50;;
47167;SDS011;32931;47.778;17.806;2023-12-28T05:42:14;24.33;;;13.15;;
47167;SDS011;32931;47.778;17.806;2023-12-28T05:44:40;23.70;;;12.88;;
47167;SDS011;32931;47.778;17.806;2023-12-28T05:47:06;27.23;;;12.98;;
47167;SDS011;32931;47.778;17.806;2023-12-28T05:49:32;23.70;;;13.20;;
47167;SDS011;32931;47.778;17.806;2023-12-28T05:51:58;24.60;;;12.32;;
47167;SDS011;32931;47.778;17.806;2023-12-28T05:54:24;25.70;;;12.90;;
47167;SDS011;32931;47.778;17.806;2023-12-28T05:56:51;23.13;;;12.32;;
47167;SDS011;32931;47.778;17.806;2023-12-28T05:59:17;23.33;;;13.07;;
47167;SDS011;32931;47.778;17.806;2023-12-28T06:01:43;24.42;;;12.45;;
47167;SDS011;32931;47.778;17.806;2023-12-28T06:04:10;24.88;;;13.27;;
47167;SDS011;32931;47.778;17.806;2023-12-28T06:06:36;24.65;;;13.95;;
47167;SDS011;32931;47.778;17.806;2023-12-28T06:09:03;24.83;;;13.27;;
47167;SDS011;32931;47.778;17.806;2023-12-28T06:11:29;25.77;;;13.35;;
47167;SDS011;32931;47.778;17.806;2023-12-28T06:13:55;22.15;;;13.40;;
47167;SDS011;32931;47.778;17.806;2023-12-28T06:16:21;26.02;;;14.18;;
47167;SDS011;32931;47.778;17.806;2023-12-28T06:18:48;23.58;;;13.80;;
47167;SDS011;32931;47.778;17.806;2023-12-28T06:21:14;20.75;;;14.10;;
47167;SDS011;32931;47.778;17.806;2023-12-28T06:23:40;24.65;;;14.05;;
47167;SDS011;32931;47.778;17.806;2023-12-28T06:26:06;27.58;;;13.63;;
47167;SDS011;32931;47.778;17.806;2023-12-28T06:28:33;22.30;;;13.70;;
47167;SDS011;32931;47.778;17.806;2023-12-28T06:30:59;28.35;;;15.30;;
47167;SDS011;32931;47.778;17.806;2023-12-28T06:33:27;27.40;;;14.98;;
47167;SDS011;32931;47.778;17.806;2023-12-28T06:35:56;26.15;;;14.60;;
47167;SDS011;32931;47.778;17.806;2023-12-28T06:38:25;25.02;;;14.65;;
47167;SDS011;32931;47.778;17.806;2023-12-28T06:40:51;28.02;;;15.35;;
47167;SDS011;32931;47.778;17.806;2023-12-28T06:43:17;24.65;;;14.15;;
47167;SDS011;32931;47.778;17.806;2023-12-28T06:45:43;29.08;;;14.68;;
47167;SDS011;32931;47.778;17.806;2023-12-28T06:48:10;27.55;;;15.13;;
47167;SDS011;32931;47.778;17.806;2023-12-28T06:50:36;23.67;;;14.63;;
47167;SDS011;32931;47.778;17.806;2023-12-28T06:53:02;24.50;;;14.35;;
47167;SDS011;32931;47.778;17.806;2023-12-28T06:55:28;26.73;;;15.15;;
47167;SDS011;32931;47.778;17.806;2023-12-28T06:57:54;28.58;;;15.45;;
47167;SDS011;32931;47.778;17.806;2023-12-28T07:00:20;27.40;;;14.88;;
47167;SDS011;32931;47.778;17.806;2023-12-28T07:02:46;28.25;;;15.45;;
47167;SDS011;32931;47.778;17.806;2023-12-28T07:05:12;21.30;;;14.52;;
47167;SDS011;32931;47.778;17.806;2023-12-28T07:07:39;29.38;;;15.20;;
47167;SDS011;32931;47.778;17.806;2023-12-28T07:10:05;23.13;;;14.38;;
47167;SDS011;32931;47.778;17.806;2023-12-28T07:12:32;24.52;;;14.70;;
47167;SDS011;32931;47.778;17.806;2023-12-28T07:14:58;33.92;;;16.00;;
47167;SDS011;32931;47.778;17.806;2023-12-28T07:17:24;26.63;;;14.50;;
47167;SDS011;32931;47.778;17.806;2023-12-28T07:19:50;29.35;;;15.55;;
47167;SDS011;32931;47.778;17.806;2023-12-28T07:22:17;24.20;;;14.38;;
47167;SDS011;32931;47.778;17.806;2023-12-28T07:24:43;29.90;;;15.18;;
47167;SDS011;32931;47.778;17.806;2023-12-28T07:27:09;27.52;;;15.80;;
47167;SDS011;32931;47.778;17.806;2023-12-28T07:29:35;27.20;;;16.50;;
47167;SDS011;32931;47.778;17.806;2023-12-28T07:32:01;30.90;;;16.88;;
47167;SDS011;32931;47.778;17.806;2023-12-28T07:34:28;28.60;;;16.10;;
47167;SDS011;32931;47.778;17.806;2023-12-28T07:36:54;30.08;;;16.25;;
47167;SDS011;32931;47.778;17.806;2023-12-28T07:39:20;26.35;;;15.65;;
47167;SDS011;32931;47.778;17.806;2023-12-28T07:41:46;35.17;;;17.77;;
47167;SDS011;32931;47.778;17.806;2023-12-28T07:44:12;34.53;;;18.02;;
47167;SDS011;32931;47.778;17.806;2023-12-28T07:46:38;26.83;;;17.73;;
47167;SDS011;32931;47.778;17.806;2023-12-28T07:49:04;28.17;;;17.92;;
47167;SDS011;32931;47.778;17.806;2023-12-28T07:51:30;28.90;;;17.05;;
47167;SDS011;32931;47.778;17.806;2023-12-28T07:53:56;29.70;;;18.20;;
47167;SDS011;32931;47.778;17.806;2023-12-28T07:56:23;33.60;;;17.88;;
47167;SDS011;32931;47.778;17.806;2023-12-28T07:58:50;30.70;;;18.25;;
47167;SDS011;32931;47.778;17.806;2023-12-28T08:01:16;37.53;;;17.90;;
47167;SDS011;32931;47.778;17.806;2023-12-28T08:03:43;34.58;;;18.48;;
47167;SDS011;32931;47.778;17.806;2023-12-28T08:06:09;35.50;;;19.35;;
47167;SDS011;32931;47.778;17.806;2023-12-28T08:08:38;35.55;;;19.33;;
47167;SDS011;32931;47.778;17.806;2023-12-28T08:11:04;32.38;;;19.00;;
47167;SDS011;32931;47.778;17.806;2023-12-28T08:13:30;42.22;;;22.50;;
47167;SDS011;32931;47.778;17.806;2023-12-28T08:15:56;35.28;;;19.33;;
47167;SDS011;32931;47.778;17.806;2023-12-28T08:18:22;34.63;;;22.35;;
47167;SDS011;32931;47.778;17.806;2023-12-28T08:20:49;32.70;;;20.33;;
47167;SDS011;32931;47.778;17.806;2023-12-28T08:23:16;34.53;;;20.67;;
47167;SDS011;32931;47.778;17.806;2023-12-28T08:25:42;38.65;;;20.38;;
47167;SDS011;32931;47.778;17.806;2023-12-28T08:28:08;35.97;;;19.60;;
47167;SDS011;32931;47.778;17.806;2023-12-28T08:30:35;30.05;;;18.98;;
47167;SDS011;32931;47.778;17.806;2023-12-28T08:33:01;40.65;;;20.63;;
47167;SDS011;32931;47.778;17.806;2023-12-28T08:35:27;39.70;;;23.52;;
47167;SDS011;32931;47.778;17.806;2023-12-28T08:37:53;34.15;;;19.42;;
47167;SDS011;32931;47.778;17.806;2023-12-28T08:40:19;35.72;;;18.65;;
47167;SDS011;32931;47.778;17.806;2023-12-28T08:42:45;32.22;;;19.17;;
47167;SDS011;32931;47.778;17.806;2023-12-28T08:45:11;37.38;;;19.00;;
47167;SDS011;32931;47.778;17.806;2023-12-28T08:47:38;34.13;;;17.95;;
47167;SDS011;32931;47.778;17.806;2023-12-28T08:50:04;43.58;;;18.30;;
47167;SDS011;32931;47.778;17.806;2023-12-28T08:52:31;31.42;;;19.17;;
47167;SDS011;32931;47.778;17.806;2023-12-28T08:54:57;35.53;;;19.15;;
47167;SDS011;32931;47.778;17.806;2023-12-28T08:57:24;36.83;;;18.77;;
47167;SDS011;32931;47.778;17.806;2023-12-28T08:59:50;32.95;;;19.67;;
47167;SDS011;32931;47.778;17.806;2023-12-28T09:02:16;33.60;;;19.58;;
47167;SDS011;32931;47.778;17.806;2023-12-28T09:04:42;30.58;;;19.25;;
47167;SDS011;32931;47.778;17.806;2023-12-28T09:07:08;30.30;;;19.15;;
47167;SDS011;32931;47.778;17.806;2023-12-28T09:09:35;38.50;;;20.83;;
47167;SDS011;32931;47.778;17.806;2023-12-28T09:12:01;35.50;;;19.88;;
47167;SDS011;32931;47.778;17.806;2023-12-28T09:14:27;38.30;;;20.08;;
47167;SDS011;32931;47.778;17.806;2023-12-28T09:16:53;36.92;;;20.85;;
47167;SDS011;32931;47.778;17.806;2023-12-28T09:19:20;36.08;;;20.67;;
47167;SDS011;32931;47.778;17.806;2023-12-28T09:21:46;41.35;;;22.95;;
47167;SDS011;32931;47.778;17.806;2023-12-28T09:24:12;38.35;;;21.90;;
47167;SDS011;32931;47.778;17.806;2023-12-28T09:26:39;38.67;;;22.45;;
47167;SDS011;32931;47.778;17.806;2023-12-28T09:29:06;43.95;;;22.38;;
47167;SDS011;32931;47.778;17.806;2023-12-28T09:31:32;39.60;;;22.48;;
47167;SDS011;32931;47.778;17.806;2023-12-28T09:33:59;43.03;;;22.23;;
47167;SDS011;32931;47.778;17.806;2023-12-28T09:36:25;39.97;;;22.40;;
47167;SDS011;32931;47.778;17.806;2023-12-28T09:38:51;42.33;;;23.75;;
47167;SDS011;32931;47.778;17.806;2023-12-28T09:41:17;41.55;;;23.50;;
47167;SDS011;32931;47.778;17.806;2023-12-28T09:43:53;41.42;;;22.33;;
47167;SDS011;32931;47.778;17.806;2023-12-28T09:46:29;39.53;;;22.70;;
47167;SDS011;32931;47.778;17.806;2023-12-28T09:48:57;36.90;;;22.58;;
47167;SDS011;32931;47.778;17.806;2023-12-28T09:51:25;50.42;;;23.27;;
47167;SDS011;32931;47.778;17.806;2023-12-28T09:53:51;40.95;;;23.90;;
47167;SDS011;32931;47.778;17.806;2023-12-28T09:56:17;40.58;;;22.88;;
47167;SDS011;32931;47.778;17.806;2023-12-28T09:58:44;39.45;;;23.05;;
47167;SDS011;32931;47.778;17.806;2023-12-28T10:01:12;36.42;;;22.40;;
47167;SDS011;32931;47.778;17.806;2023-12-28T10:03:39;40.58;;;24.35;;
47167;SDS011;32931;47.778;17.806;2023-12-28T10:06:05;43.25;;;23.20;;
47167;SDS011;32931;47.778;17.806;2023-12-28T10:08:31;38.47;;;22.55;;
47167;SDS011;32931;47.778;17.806;2023-12-28T10:10:58;39.30;;;23.33;;
47167;SDS011;32931;47.778;17.806;2023-12-28T10:13:26;42.22;;;23.08;;
47167;SDS011;32931;47.778;17.806;2023-12-28T10:15:52;39.35;;;23.10;;
47167;SDS011;32931;47.778;17.806;2023-12-28T10:18:22;38.22;;;22.73;;
47167;SDS011;32931;47.778;17.806;2023-12-28T10:20:53;42.53;;;22.73;;
47167;SDS011;32931;47.778;17.806;2023-12-28T10:23:19;36.33;;;22.67;;
47167;SDS011;32931;47.778;17.806;2023-12-28T10:25:50;41.30;;;23.55;;
47167;SDS011;32931;47.778;17.806;2023-12-28T10:28:19;35.10;;;22.17;;
47167;SDS011;32931;47.778;17.806;2023-12-28T10:30:45;44.40;;;22.10;;
47167;SDS011;32931;47.778;17.806;2023-12-28T10:33:13;45.25;;;23.40;;
47167;SDS011;32931;47.778;17.806;2023-12-28T10:35:39;39.72;;;21.58;;
47167;SDS011;32931;47.778;17.806;2023-12-28T10:38:05;41.65;;;22.05;;
47167;SDS011;32931;47.778;17.806;2023-12-28T10:40:35;36.85;;;20.55;;
47167;SDS011;32931;47.778;17.806;2023-12-28T10:43:06;37.05;;;20.90;;
47167;SDS011;32931;47.778;17.806;2023-12-28T10:45:34;35.60;;;20.23;;
47167;SDS011;32931;47.778;17.806;2023-12-28T10:48:10;37.65;;;20.05;;
47167;SDS011;32931;47.778;17.806;2023-12-28T10:50:38;37.15;;;21.00;;
47167;SDS011;32931;47.778;17.806;2023-12-28T10:53:49;41.78;;;24.77;;
47167;SDS011;32931;47.778;17.806;2023-12-28T10:58:49;39.80;;;22.90;;
47167;SDS011;32931;47.778;17.806;2023-12-28T11:01:35;40.17;;;21.52;;
47167;SDS011;32931;47.778;17.806;2023-12-28T11:04:10;36.50;;;21.65;;
47167;SDS011;32931;47.778;17.806;2023-12-28T11:06:58;39.03;;;21.73;;
47167;SDS011;32931;47.778;17.806;2023-12-28T11:09:27;39.22;;;20.85;;
47167;SDS011;32931;47.778;17.806;2023-12-28T11:11:59;37.35;;;20.55;;
47167;SDS011;32931;47.778;17.806;2023-12-28T11:14:27;38.53;;;21.17;;
47167;SDS011;32931;47.778;17.806;2023-12-28T11:16:54;35.45;;;20.60;;
47167;SDS011;32931;47.778;17.806;2023-12-28T11:19:23;37.00;;;20.77;;
47167;SDS011;32931;47.778;17.806;2023-12-28T11:21:49;44.00;;;20.35;;
47167;SDS011;32931;47.778;17.806;2023-12-28T11:24:17;39.60;;;20.35;;
47167;SDS011;32931;47.778;17.806;2023-12-28T11:26:44;34.20;;;20.73;;
47167;SDS011;32931;47.778;17.806;2023-12-28T11:29:18;41.55;;;21.23;;
47167;SDS011;32931;47.778;17.806;2023-12-28T11:31:50;38.03;;;20.50;;
47167;SDS011;32931;47.778;17.806;2023-12-28T11:34:17;43.03;;;21.67;;
47167;SDS011;32931;47.778;17.806;2023-12-28T11:36:44;38.25;;;20.50;;
47167;SDS011;32931;47.778;17.806;2023-12-28T11:39:14;35.85;;;20.40;;
47167;SDS011;32931;47.778;17.806;2023-12-28T11:41:58;31.15;;;18.85;;
47167;SDS011;32931;47.778;17.806;2023-12-28T11:44:36;43.63;;;20.90;;
47167;SDS011;32931;47.778;17.806;2023-12-28T11:47:13;36.28;;;19.95;;
47167;SDS011;32931;47.778;17.806;2023-12-28T11:49:41;31.67;;;19.80;;
47167;SDS011;32931;47.778;17.806;2023-12-28T11:52:09;35.78;;;20.02;;
47167;SDS011;32931;47.778;17.806;2023-12-28T11:54:36;35.75;;;19.85;;
47167;SDS011;32931;47.778;17.806;2023-12-28T11:57:03;29.15;;;19.15;;
47167;SDS011;32931;47.778;17.806;2023-12-28T11:59:29;40.42;;;20.48;;
47167;SDS011;32931;47.778;17.806;2023-12-28T12:01:57;46.70;;;28.88;;
47167;SDS011;32931;47.778;17.806;2023-12-28T12:04:23;40.58;;;22.95;;
47167;SDS011;32931;47.778;17.806;2023-12-28T12:06:49;31.67;;;20.45;;
47167;SDS011;32931;47.778;17.806;2023-12-28T12:09:17;29.95;;;17.98;;
47167;SDS011;32931;47.778;17.806;2023-12-28T12:11:48;31.40;;;18.50;;
47167;SDS011;32931;47.778;17.806;2023-12-28T12:14:18;37.03;;;21.13;;
47167;SDS011;32931;47.778;17.806;2023-12-28T12:16:44;43.28;;;19.45;;
47167;SDS011;32931;47.778;17.806;2023-12-28T12:19:11;36.95;;;19.50;;
47167;SDS011;32931;47.778;17.806;2023-12-28T12:21:37;33.40;;;18.55;;
47167;SDS011;32931;47.778;17.806;2023-12-28T12:24:03;30.23;;;18.63;;
47167;SDS011;32931;47.778;17.806;2023-12-28T12:26:30;32.60;;;18.30;;
47167;SDS011;32931;47.778;17.806;2023-12-28T12:28:57;34.40;;;18.52;;
47167;SDS011;32931;47.778;17.806;2023-12-28T12:31:23;35.33;;;18.70;;
47167;SDS011;32931;47.778;17.806;2023-12-28T12:33:51;35.92;;;18.33;;
47167;SDS011;32931;47.778;17.806;2023-12-28T12:36:18;29.08;;;17.10;;
47167;SDS011;32931;47.778;17.806;2023-12-28T12:38:44;28.35;;;15.75;;
47167;SDS011;32931;47.778;17.806;2023-12-28T12:41:11;30.88;;;17.63;;
47167;SDS011;32931;47.778;17.806;2023-12-28T12:43:37;36.05;;;18.15;;
47167;SDS011;32931;47.778;17.806;2023-12-28T12:46:04;32.00;;;18.55;;
47167;SDS011;32931;47.778;17.806;2023-12-28T12:48:30;28.90;;;17.65;;
47167;SDS011;32931;47.778;17.806;2023-12-28T12:50:56;28.35;;;18.20;;
47167;SDS011;32931;47.778;17.806;2023-12-28T12:53:22;32.70;;;18.48;;
47167;SDS011;32931;47.778;17.806;2023-12-28T12:55:48;33.42;;;19.00;;
47167;SDS011;32931;47.778;17.806;2023-12-28T12:58:20;33.88;;;18.60;;
47167;SDS011;32931;47.778;17.806;2023-12-28T13:00:47;35.38;;;20.33;;
47167;SDS011;32931;47.778;17.806;2023-12-28T13:03:14;34.10;;;17.90;;
47167;SDS011;32931;47.778;17.806;2023-12-28T13:05:41;32.17;;;17.90;;
47167;SDS011;32931;47.778;17.806;2023-12-28T13:08:09;30.85;;;16.05;;
47167;SDS011;32931;47.778;17.806;2023-12-28T13:10:35;37.60;;;16.50;;
47167;SDS011;32931;47.778;17.806;2023-12-28T13:13:02;27.67;;;17.25;;
47167;SDS011;32931;47.778;17.806;2023-12-28T13:15:31;29.52;;;16.77;;
47167;SDS011;32931;47.778;17.806;2023-12-28T13:17:57;30.73;;;16.35;;
47167;SDS011;32931;47.778;17.806;2023-12-28T13:20:24;24.27;;;14.90;;
47167;SDS011;32931;47.778;17.806;2023-12-28T13:22:50;25.52;;;14.98;;
47167;SDS011;32931;47.778;17.806;2023-12-28T13:25:16;23.48;;;15.20;;
47167;SDS011;32931;47.778;17.806;2023-12-28T13:27:42;28.98;;;17.88;;
47167;SDS011;32931;47.778;17.806;2023-12-28T13:30:09;26.42;;;17.30;;
47167;SDS011;32931;47.778;17.806;2023-12-28T13:32:37;32.80;;;18.23;;
47167;SDS011;32931;47.778;17.806;2023-12-28T13:35:03;31.45;;;18.25;;
47167;SDS011;32931;47.778;17.806;2023-12-28T13:37:30;26.80;;;15.55;;
47167;SDS011;32931;47.778;17.806;2023-12-28T13:39:56;26.10;;;15.95;;
47167;SDS011;32931;47.778;17.806;2023-12-28T13:42:22;26.90;;;16.38;;
47167;SDS011;32931;47.778;17.806;2023-12-28T13:44:48;31.25;;;16.35;;
47167;SDS011;32931;47.778;17.806;2023-12-28T13:47:15;31.65;;;16.13;;
47167;SDS011;32931;47.778;17.806;2023-12-28T13:49:41;32.97;;;16.42;;
47167;SDS011;32931;47.778;17.806;2023-12-28T13:52:09;29.63;;;16.27;;
47167;SDS011;32931;47.778;17.806;2023-12-28T13:54:35;31.95;;;16.00;;
47167;SDS011;32931;47.778;17.806;2023-12-28T13:57:01;22.13;;;14.35;;
47167;SDS011;32931;47.778;17.806;2023-12-28T13:59:27;30.70;;;15.25;;
47167;SDS011;32931;47.778;17.806;2023-12-28T14:01:53;28.65;;;15.18;;
47167;SDS011;32931;47.778;17.806;2023-12-28T14:04:20;23.20;;;14.93;;
47167;SDS011;32931;47.778;17.806;2023-12-28T14:06:46;27.25;;;15.68;;
47167;SDS011;32931;47.778;17.806;2023-12-28T14:09:12;23.83;;;15.18;;